Time;durP1;ratioP1;P1;durP2;ratioP2;P2;SDS_P1;SDS_P2;PMS_P1;PMS_P2;Temp;Humidity;BMP_temperature;BMP_pressure;BME280_temperature;BME280_humidity;BME280_pressure;Samples;Min_cycle;Max_cycle;Signal;HPM_P1;HPM_P2
2021/08/09 00:00:22;;;;;;;;;1.00;1.00;;;;;17.69;64.07;101292.38;5069389;27;45486;-72
2021/08/09 00:02:47;;;;;;;;;1.50;1.00;;;;;17.65;64.50;101293.75;5047634;28;46909;-76
2021/08/09 00:05:13;;;;;;;;;2.00;2.00;;;;;17.61;64.62;101297.81;5083590;27;45759;-72
2021/08/09 00:07:38;;;;;;;;;1.00;1.00;;;;;17.58;64.75;101301.69;5054880;28;45580;-70
2021/08/09 00:10:04;;;;;;;;;1.00;1.00;;;;;17.54;64.75;101310.25;5072483;27;45388;-72
2021/08/09 00:12:29;;;;;;;;;1.25;1.25;;;;;17.51;64.16;101307.94;5069274;27;46625;-72
2021/08/09 00:14:55;;;;;;;;;1.00;1.00;;;;;17.46;64.71;101308.47;5073395;27;45381;-70
2021/08/09 00:17:20;;;;;;;;;2.25;1.25;;;;;17.41;65.46;101309.03;5074502;27;45609;-73
2021/08/09 00:19:45;;;;;;;;;3.00;1.75;;;;;17.37;64.66;101306.88;5078138;27;45707;-72
2021/08/09 00:22:11;;;;;;;;;1.50;1.50;;;;;17.33;65.25;101301.06;5072598;27;45539;-70
2021/08/09 00:24:36;;;;;;;;;1.00;1.00;;;;;17.31;64.78;101292.41;5070349;27;45580;-73
2021/08/09 00:27:02;;;;;;;;;2.00;1.00;;;;;17.30;65.30;101296.06;5078230;27;45563;-74
2021/08/09 00:29:27;;;;;;;;;2.25;1.75;;;;;17.27;65.54;101287.59;5069793;27;45486;-73
2021/08/09 00:31:53;;;;;;;;;1.00;1.00;;;;;17.23;65.43;101289.78;5087264;27;46393;-74
2021/08/09 00:34:19;;;;;;;;;2.00;2.00;;;;;17.21;65.11;101289.16;5074270;27;45558;-72
2021/08/09 00:36:45;;;;;;;;;1.00;1.00;;;;;17.18;65.71;101282.34;5068950;27;46080;-70
2021/08/09 00:39:10;;;;;;;;;1.25;1.25;;;;;17.18;65.81;101290.34;5071801;27;45650;-72
2021/08/09 00:41:36;;;;;;;;;1.00;1.00;;;;;17.20;66.33;101290.16;5062159;27;47165;-69
2021/08/09 00:44:02;;;;;;;;;3.00;1.00;;;;;17.21;66.03;101286.50;5077524;27;45453;-75
2021/08/09 00:46:29;;;;;;;;;0.75;0.75;;;;;17.24;65.34;101291.47;5072175;27;45491;-75
2021/08/09 00:48:55;;;;;;;;;2.75;2.75;;;;;17.26;65.76;101294.78;5071262;27;45617;-70
2021/08/09 00:51:20;;;;;;;;;1.00;1.00;;;;;17.25;65.26;101293.13;5073036;27;45412;-74
2021/08/09 00:53:46;;;;;;;;;1.00;1.00;;;;;17.22;65.75;101298.81;5068396;27;45620;-75
2021/08/09 00:56:11;;;;;;;;;3.25;2.00;;;;;17.19;65.96;101293.84;5068898;27;45379;-70
2021/08/09 00:58:37;;;;;;;;;1.75;1.25;;;;;17.17;65.64;101295.84;5053940;28;45532;-75
2021/08/09 01:01:02;;;;;;;;;1.00;1.00;;;;;17.13;65.94;101284.69;5070212;27;45420;-70
2021/08/09 01:03:28;;;;;;;;;2.25;1.75;;;;;17.11;66.15;101281.38;5065012;27;45373;-73
2021/08/09 01:05:53;;;;;;;;;3.00;1.00;;;;;17.10;65.84;101284.22;5070058;27;45450;-75
2021/08/09 01:08:31;;;;;;;;;1.50;1.50;;;;;17.09;66.15;101285.25;5079668;27;45559;-74
2021/08/09 01:11:12;;;;;;;;;2.00;1.00;;;;;17.08;66.00;101280.91;5079693;27;46962;-74
2021/08/09 01:14:01;;;;;;;;;1.00;1.00;;;;;17.06;66.02;101272.22;5077627;27;45569;-75
2021/08/09 01:16:31;;;;;;;;;1.00;1.00;;;;;17.06;66.06;101282.91;5053859;27;45478;-72
2021/08/09 01:19:03;;;;;;;;;3.00;1.00;;;;;17.05;65.89;101270.59;5071437;27;45494;-73
2021/08/09 01:21:34;;;;;;;;;2.00;0.50;;;;;17.01;66.04;101269.25;5069685;27;45477;-74
2021/08/09 01:24:11;;;;;;;;;4.00;1.00;;;;;17.02;66.91;101265.59;5065949;27;45491;-75
2021/08/09 01:27:01;;;;;;;;;2.50;1.00;;;;;16.97;66.89;101264.28;5072299;27;45486;-72
2021/08/09 01:29:37;;;;;;;;;1.00;1.00;;;;;16.96;66.31;101261.78;5067743;27;45674;-74
2021/08/09 01:32:04;;;;;;;;;1.00;1.00;;;;;16.91;66.01;101275.69;5073040;27;45573;-72
2021/08/09 01:34:30;;;;;;;;;2.75;1.00;;;;;16.88;66.93;101269.88;5082072;27;45522;-74
2021/08/09 01:36:58;;;;;;;;;1.00;1.00;;;;;16.82;66.15;101274.09;5072442;27;45497;-76
2021/08/09 01:39:23;;;;;;;;;2.75;2.00;;;;;16.79;66.28;101270.91;5070279;27;45472;-73
2021/08/09 01:41:51;;;;;;;;;3.00;0.50;;;;;16.75;66.49;101281.09;5069453;27;46057;-73
2021/08/09 01:44:17;;;;;;;;;2.75;1.00;;;;;16.72;66.25;101273.47;5073187;27;45501;-74
2021/08/09 01:46:44;;;;;;;;;2.75;2.00;;;;;16.71;67.08;101272.59;5073523;27;45617;-74
2021/08/09 01:49:10;;;;;;;;;1.25;0.75;;;;;16.73;66.87;101275.09;5070136;27;45426;-75
2021/08/09 01:51:37;;;;;;;;;3.00;1.00;;;;;16.75;67.23;101267.75;5070681;27;46569;-74
2021/08/09 01:54:03;;;;;;;;;2.25;1.00;;;;;16.76;67.30;101283.59;5078106;27;45531;-74
2021/08/09 01:56:30;;;;;;;;;1.50;1.00;;;;;16.77;67.15;101284.44;5073471;27;45518;-72
2021/08/09 01:58:55;;;;;;;;;3.00;2.25;;;;;16.76;66.63;101288.94;5067207;27;45445;-76
2021/08/09 02:01:21;;;;;;;;;2.00;1.25;;;;;16.75;66.35;101299.78;5087128;27;45427;-72
2021/08/09 02:03:47;;;;;;;;;2.00;1.00;;;;;16.72;66.17;101286.81;5075279;27;45455;-72
2021/08/09 02:06:13;;;;;;;;;2.00;1.75;;;;;16.68;67.06;101274.81;5062052;27;45585;-73
2021/08/09 02:08:39;;;;;;;;;2.00;2.00;;;;;16.66;67.53;101272.31;5069941;27;45582;-72
2021/08/09 02:11:18;;;;;;;;;1.75;1.00;;;;;16.65;67.01;101280.50;5070798;27;45991;-71
2021/08/09 02:13:55;;;;;;;;;2.00;1.00;;;;;16.61;66.88;101280.00;5070086;27;45483;-75
2021/08/09 02:16:34;;;;;;;;;1.25;1.00;;;;;16.58;66.76;101279.53;5073086;27;45452;-75
2021/08/09 02:19:03;;;;;;;;;1.00;1.00;;;;;16.53;67.78;101275.56;5067949;27;46036;-75
2021/08/09 02:21:33;;;;;;;;;4.75;1.00;;;;;16.50;67.20;101283.91;5067247;27;45596;-75
2021/08/09 02:24:04;;;;;;;;;1.00;1.00;;;;;16.45;68.00;101280.94;5084591;27;45537;-74
2021/08/09 02:26:36;;;;;;;;;1.00;1.00;;;;;16.42;67.97;101293.78;5075216;27;45523;-75
2021/08/09 02:29:12;;;;;;;;;0.50;0.00;;;;;16.37;67.83;101286.31;5059777;27;45499;-74
2021/08/09 02:31:41;;;;;;;;;1.00;1.00;;;;;16.33;67.70;101288.50;5074680;27;46347;-72
2021/08/09 02:34:09;;;;;;;;;2.00;2.00;;;;;16.29;67.70;101283.66;5065245;27;45537;-74
2021/08/09 02:36:35;;;;;;;;;3.25;1.25;;;;;16.25;67.91;101287.72;5067831;27;45481;-76
2021/08/09 02:39:01;;;;;;;;;2.75;1.75;;;;;16.22;67.91;101282.69;5080497;27;45740;-72
2021/08/09 02:41:28;;;;;;;;;2.75;1.00;;;;;16.20;68.23;101277.56;5067127;27;47335;-70
2021/08/09 02:43:54;;;;;;;;;2.00;1.00;;;;;16.20;67.86;101282.06;5070508;27;45821;-74
2021/08/09 02:46:20;;;;;;;;;1.00;1.00;;;;;16.17;68.00;101282.38;5070745;27;45513;-72
2021/08/09 02:48:49;;;;;;;;;1.75;1.00;;;;;16.15;67.97;101282.56;5073989;27;45514;-75
2021/08/09 02:51:18;;;;;;;;;1.00;1.00;;;;;16.11;68.56;101276.75;5074139;27;45670;-72
2021/08/09 02:53:44;;;;;;;;;2.00;1.75;;;;;16.10;68.45;101282.28;5068801;27;45556;-69
2021/08/09 02:56:10;;;;;;;;;1.00;1.00;;;;;16.08;68.71;101293.09;5081683;27;45495;-72
2021/08/09 02:58:35;;;;;;;;;1.00;1.00;;;;;16.05;69.08;101290.78;5070392;27;45540;-72
2021/08/09 03:01:01;;;;;;;;;1.00;1.00;;;;;16.03;68.78;101281.28;5070048;27;46051;-75
2021/08/09 03:03:29;;;;;;;;;1.00;1.00;;;;;16.00;69.41;101287.81;5068878;27;45547;-72
2021/08/09 03:05:58;;;;;;;;;0.00;0.00;;;;;15.97;69.03;101287.28;5073635;27;45419;-75
2021/08/09 03:08:25;;;;;;;;;3.00;2.00;;;;;15.96;69.90;101288.31;5084334;27;45728;-75
2021/08/09 03:10:51;;;;;;;;;1.00;1.00;;;;;15.92;69.62;101285.13;5062907;27;47422;-72
2021/08/09 03:13:24;;;;;;;;;1.50;1.00;;;;;15.89;69.27;101286.31;5072324;27;45488;-74
2021/08/09 03:15:51;;;;;;;;;2.25;2.00;;;;;15.89;69.27;101290.81;5069995;27;45944;-75
2021/08/09 03:18:17;;;;;;;;;2.00;2.00;;;;;15.85;70.00;101289.47;5079314;27;45636;-72
2021/08/09 03:20:42;;;;;;;;;3.00;1.00;;;;;15.84;69.62;101287.84;5072733;27;45611;-72
2021/08/09 03:23:08;;;;;;;;;1.00;1.00;;;;;15.83;69.46;101291.50;5071565;27;45484;-69
2021/08/09 03:25:33;;;;;;;;;2.00;2.00;;;;;15.79;70.18;101284.84;5074782;27;46034;-73
2021/08/09 03:27:59;;;;;;;;;2.00;1.75;;;;;15.78;70.58;101285.84;5070415;27;45478;-72
2021/08/09 03:30:28;;;;;;;;;1.25;1.25;;;;;15.76;70.01;101293.19;5075984;27;45481;-69
2021/08/09 03:32:54;;;;;;;;;1.00;1.00;;;;;15.75;70.07;101288.84;5072282;27;45387;-69
2021/08/09 03:35:20;;;;;;;;;3.00;2.50;;;;;15.69;70.29;101288.53;5078788;27;45482;-70
2021/08/09 03:37:46;;;;;;;;;2.50;1.00;;;;;15.69;70.97;101295.66;5072963;27;45474;-72
2021/08/09 03:40:11;;;;;;;;;2.50;2.50;;;;;15.66;70.93;101294.16;5074085;27;48280;-72
2021/08/09 03:42:37;;;;;;;;;1.00;1.00;;;;;15.65;70.49;101300.50;5069646;27;45468;-74
2021/08/09 03:45:04;;;;;;;;;3.75;1.00;;;;;15.64;70.86;101298.81;5073438;27;45436;-75
2021/08/09 03:47:29;;;;;;;;;5.00;2.00;;;;;15.63;70.63;101307.00;5076853;27;45716;-73
2021/08/09 03:49:55;;;;;;;;;3.75;2.00;;;;;15.61;70.94;101301.84;5079756;27;46257;-70
2021/08/09 03:52:20;;;;;;;;;0.50;0.25;;;;;15.60;70.70;101309.97;5073435;27;45405;-74
2021/08/09 03:54:45;;;;;;;;;1.00;1.00;;;;;15.58;70.85;101307.50;5055318;27;45750;-73
2021/08/09 03:57:11;;;;;;;;;5.00;1.00;;;;;15.56;70.78;101296.19;5078245;27;45556;-72
2021/08/09 03:59:36;;;;;;;;;1.75;1.75;;;;;15.53;71.20;101290.34;5072477;27;45500;-75
2021/08/09 04:02:02;;;;;;;;;2.50;1.25;;;;;15.53;71.04;101298.34;5077897;27;45458;-75
2021/08/09 04:04:27;;;;;;;;;3.00;1.25;;;;;15.53;71.25;101301.00;5071980;27;45536;-69
2021/08/09 04:06:52;;;;;;;;;2.00;1.00;;;;;15.51;70.99;101298.53;5074601;27;45472;-74
2021/08/09 04:09:18;;;;;;;;;3.00;1.00;;;;;15.48;71.67;101298.88;5075003;27;46308;-74
2021/08/09 04:11:43;;;;;;;;;3.00;2.00;;;;;15.46;71.90;101295.53;5072668;27;45914;-69
2021/08/09 04:14:08;;;;;;;;;2.50;2.00;;;;;15.46;71.41;101301.69;5079398;27;45485;-75
2021/08/09 04:16:34;;;;;;;;;3.00;2.00;;;;;15.46;72.20;101298.19;5071999;27;45579;-72
2021/08/09 04:18:59;;;;;;;;;3.00;2.00;;;;;15.43;71.23;101296.69;5074248;27;45502;-76
2021/08/09 04:21:25;;;;;;;;;2.00;2.00;;;;;15.41;71.32;101303.19;5066035;27;45606;-75
2021/08/09 04:23:52;;;;;;;;;3.00;1.75;;;;;15.36;71.20;101301.03;5071372;27;45440;-72
2021/08/09 04:26:19;;;;;;;;;2.75;2.75;;;;;15.36;71.40;101310.84;5070524;27;45517;-74
2021/08/09 04:28:44;;;;;;;;;4.50;2.00;;;;;15.36;71.63;101316.19;5071373;27;46637;-70
2021/08/09 04:31:09;;;;;;;;;3.75;2.00;;;;;15.36;71.50;101326.84;5051879;28;45464;-74
2021/08/09 04:33:46;;;;;;;;;2.00;2.00;;;;;15.36;71.96;101321.50;5077045;27;45524;-73
2021/08/09 04:36:12;;;;;;;;;2.00;2.00;;;;;15.36;71.95;101329.50;5074144;27;45539;-74
2021/08/09 04:38:38;;;;;;;;;5.50;2.00;;;;;15.36;72.03;101332.97;5078189;27;47445;-75
2021/08/09 04:41:08;;;;;;;;;2.00;2.00;;;;;15.37;71.50;101333.81;5079755;27;45779;-70
2021/08/09 04:43:36;;;;;;;;;2.00;2.00;;;;;15.36;72.04;101338.31;5083576;27;45492;-75
2021/08/09 04:46:01;;;;;;;;;3.50;2.00;;;;;15.37;71.66;101339.13;5051242;28;45515;-73
2021/08/09 04:48:26;;;;;;;;;2.75;1.75;;;;;15.38;72.08;101346.13;5052429;27;47048;-69
2021/08/09 04:50:52;;;;;;;;;2.00;1.25;;;;;15.39;71.92;101347.81;5077461;27;45475;-70
2021/08/09 04:53:17;;;;;;;;;2.00;2.00;;;;;15.40;71.81;101339.63;5078066;27;45502;-75
2021/08/09 04:55:43;;;;;;;;;2.00;2.00;;;;;15.42;71.79;101339.47;5087235;27;45615;-71
2021/08/09 04:58:08;;;;;;;;;2.25;1.50;;;;;15.43;71.92;101347.31;5074823;27;46326;-71
2021/08/09 05:00:33;;;;;;;;;5.50;2.25;;;;;15.45;72.09;101347.97;5074028;27;45500;-72
2021/08/09 05:02:59;;;;;;;;;2.00;2.00;;;;;15.48;71.98;101346.81;5047111;28;45509;-72
2021/08/09 05:05:24;;;;;;;;;6.75;3.00;;;;;15.52;71.54;101352.63;5068379;27;45639;-75
2021/08/09 05:07:55;;;;;;;;;3.50;2.00;;;;;15.54;71.33;101348.78;5072314;27;45519;-69
2021/08/09 05:10:22;;;;;;;;;4.75;2.00;;;;;15.56;71.07;101351.31;5076044;27;45592;-71
2021/08/09 05:12:48;;;;;;;;;2.00;2.00;;;;;15.57;71.07;101344.97;5081973;27;45518;-74
2021/08/09 05:15:13;;;;;;;;;2.00;2.00;;;;;15.61;70.96;101341.81;5075152;27;45594;-75
2021/08/09 05:17:38;;;;;;;;;4.25;2.75;;;;;15.64;71.14;101346.78;5073773;27;46221;-70
2021/08/09 05:20:06;;;;;;;;;3.25;2.25;;;;;15.66;71.02;101338.63;5078040;27;45759;-75
2021/08/09 05:22:33;;;;;;;;;4.00;2.00;;;;;15.63;71.10;101347.81;5086785;27;45507;-72
2021/08/09 05:24:58;;;;;;;;;2.25;2.25;;;;;15.63;71.21;101352.31;5068312;27;45538;-70
2021/08/09 05:27:24;;;;;;;;;4.00;2.75;;;;;15.60;71.03;101356.13;5071779;27;45605;-75
2021/08/09 05:29:49;;;;;;;;;6.00;3.00;;;;;15.59;71.09;101359.78;5069068;27;45635;-72
2021/08/09 05:32:15;;;;;;;;;1.75;1.75;;;;;15.61;71.30;101370.28;5068204;27;45510;-74
2021/08/09 05:34:42;;;;;;;;;2.00;2.00;;;;;15.60;71.08;101356.13;5086907;27;45564;-72
2021/08/09 05:37:08;;;;;;;;;2.50;2.00;;;;;15.60;71.22;101349.94;5061409;27;46189;-75
2021/08/09 05:39:34;;;;;;;;;4.00;2.00;;;;;15.61;71.77;101360.44;5068307;27;45518;-76
2021/08/09 05:41:59;;;;;;;;;2.00;2.00;;;;;15.64;71.23;101356.63;5079561;27;45540;-76
2021/08/09 05:44:25;;;;;;;;;4.25;3.00;;;;;15.71;71.57;101347.00;5069176;27;45539;-75
2021/08/09 05:46:50;;;;;;;;;2.50;2.50;;;;;15.78;71.28;101350.66;5071286;27;45614;-74
2021/08/09 05:49:16;;;;;;;;;6.00;2.75;;;;;15.86;70.58;101361.28;5074180;27;45426;-75
2021/08/09 05:51:41;;;;;;;;;4.50;3.00;;;;;15.98;70.89;101356.44;5067806;27;45457;-74
2021/08/09 05:54:08;;;;;;;;;3.25;2.25;;;;;16.19;70.76;101360.38;5051108;28;45429;-76
2021/08/09 05:56:34;;;;;;;;;4.00;2.00;;;;;16.34;70.18;101350.66;5074616;27;46116;-72
2021/08/09 05:58:59;;;;;;;;;0.75;0.75;;;;;16.45;69.47;101363.66;5077299;27;45404;-74
2021/08/09 06:01:24;;;;;;;;;2.25;2.25;;;;;16.51;69.68;101364.78;5076351;27;45420;-72
2021/08/09 06:03:50;;;;;;;;;1.75;1.75;;;;;16.56;69.38;101367.75;5072963;27;45333;-72
2021/08/09 06:06:19;;;;;;;;;2.75;1.50;;;;;16.52;68.84;101369.97;5069199;27;49961;-73
2021/08/09 06:08:46;;;;;;;;;4.25;2.00;;;;;16.54;69.38;101359.94;5061888;27;45642;-75
2021/08/09 06:11:11;;;;;;;;;4.00;2.00;;;;;16.60;69.95;101363.75;5066785;27;45598;-74
2021/08/09 06:13:37;;;;;;;;;4.75;3.00;;;;;16.69;68.95;101367.19;5071431;27;45821;-76
2021/08/09 06:16:03;;;;;;;;;2.50;2.50;;;;;16.76;68.75;101373.50;5069938;27;46321;-74
2021/08/09 06:18:34;;;;;;;;;3.75;2.50;;;;;16.81;68.89;101373.84;5074785;27;45476;-72
2021/08/09 06:21:01;;;;;;;;;4.25;3.00;;;;;16.87;68.67;101375.00;5069246;27;45450;-72
2021/08/09 06:23:26;;;;;;;;;3.50;2.25;;;;;16.96;68.90;101382.78;5076529;27;45530;-74
2021/08/09 06:25:54;;;;;;;;;3.00;2.75;;;;;17.06;68.33;101379.91;5071494;27;46418;-72
2021/08/09 06:28:19;;;;;;;;;4.25;3.00;;;;;17.15;67.61;101386.00;5068569;27;45755;-74
2021/08/09 06:30:45;;;;;;;;;4.00;3.25;;;;;17.21;67.87;101388.00;5073797;27;45544;-74
2021/08/09 06:33:10;;;;;;;;;4.00;3.50;;;;;17.29;67.26;101379.91;5071064;27;45491;-70
2021/08/09 06:35:35;;;;;;;;;3.00;3.00;;;;;17.26;67.29;101390.97;5074668;27;48151;-76
2021/08/09 06:38:05;;;;;;;;;4.00;3.00;;;;;17.24;67.69;101384.97;5069127;27;45412;-72
2021/08/09 06:40:31;;;;;;;;;5.00;3.00;;;;;17.22;67.87;101384.28;5078875;27;45497;-70
2021/08/09 06:42:56;;;;;;;;;5.00;2.75;;;;;17.19;67.61;101387.31;5069225;27;45592;-71
2021/08/09 06:45:22;;;;;;;;;3.75;2.75;;;;;17.16;67.69;101393.00;5048628;28;48326;-76
2021/08/09 06:47:47;;;;;;;;;2.25;2.00;;;;;17.14;68.25;101389.69;5068658;27;45630;-74
2021/08/09 06:50:13;;;;;;;;;3.50;3.00;;;;;17.08;68.24;101390.38;5074730;27;46082;-70
2021/08/09 06:52:38;;;;;;;;;4.25;3.00;;;;;17.01;69.14;101397.44;5067627;27;45373;-74
2021/08/09 06:55:04;;;;;;;;;3.25;2.75;;;;;16.95;69.39;101402.47;5073148;27;48768;-75
2021/08/09 06:57:29;;;;;;;;;2.75;2.75;;;;;16.96;69.85;101396.16;5063138;27;45609;-69
2021/08/09 06:59:54;;;;;;;;;4.00;4.00;;;;;16.95;69.73;101402.47;5082489;27;45534;-75
2021/08/09 07:02:20;;;;;;;;;3.00;3.00;;;;;16.97;69.90;101408.47;5078979;27;45538;-74
2021/08/09 07:04:45;;;;;;;;;7.75;2.00;;;;;16.96;69.81;101397.97;5086969;27;45397;-70
2021/08/09 07:07:10;;;;;;;;;4.00;3.25;;;;;16.95;70.31;101394.47;5071155;27;54249;-74
2021/08/09 07:09:36;;;;;;;;;5.00;3.50;;;;;16.99;70.05;101397.63;5072164;27;45421;-73
2021/08/09 07:12:01;;;;;;;;;4.00;2.00;;;;;17.01;70.74;101406.28;5071539;27;45554;-72
2021/08/09 07:14:26;;;;;;;;;5.00;4.00;;;;;17.02;70.34;101402.63;5060874;28;47962;-74
2021/08/09 07:16:52;;;;;;;;;4.50;3.00;;;;;17.07;70.58;101404.75;5080213;27;45569;-75
2021/08/09 07:19:18;;;;;;;;;3.50;2.25;;;;;17.08;70.37;101411.75;5077769;27;45500;-72
2021/08/09 07:21:44;;;;;;;;;2.25;2.25;;;;;17.08;70.38;101398.41;5074399;27;45461;-72
2021/08/09 07:24:09;;;;;;;;;3.75;2.75;;;;;17.07;70.89;101402.09;5072738;27;45593;-72
2021/08/09 07:26:34;;;;;;;;;4.00;3.00;;;;;17.06;70.85;101406.59;5069969;27;45555;-73
2021/08/09 07:29:00;;;;;;;;;5.00;3.50;;;;;17.11;71.30;101408.72;5071354;27;45599;-72
2021/08/09 07:31:25;;;;;;;;;5.50;4.00;;;;;17.17;71.48;101405.38;5073918;28;45454;-75
2021/08/09 07:33:51;;;;;;;;;5.50;2.25;;;;;17.19;71.28;101404.19;5055561;27;49097;-75
2021/08/09 07:36:16;;;;;;;;;5.50;3.00;;;;;17.32;71.27;101406.25;5070042;27;45499;-70
2021/08/09 07:38:42;;;;;;;;;3.25;2.25;;;;;17.55;71.12;101410.78;5069254;27;45599;-74
2021/08/09 07:41:08;;;;;;;;;4.25;3.75;;;;;17.87;70.27;101403.53;5070113;27;45509;-74
2021/08/09 07:43:33;;;;;;;;;3.25;3.25;;;;;18.41;69.82;101397.97;5083894;27;46054;-74
2021/08/09 07:45:59;;;;;;;;;5.75;4.25;;;;;18.99;66.94;101396.28;5073835;27;45583;-71
2021/08/09 07:48:24;;;;;;;;;4.50;3.00;;;;;19.29;66.81;101399.69;5073099;27;45686;-74
2021/08/09 07:50:49;;;;;;;;;5.75;4.25;;;;;19.58;66.89;101397.03;5088903;27;45467;-70
2021/08/09 07:53:15;;;;;;;;;5.75;3.75;;;;;19.69;65.75;101408.13;5070723;27;45992;-71
2021/08/09 07:55:41;;;;;;;;;1.00;1.00;;;;;19.74;65.08;101404.84;5079542;27;45578;-72
2021/08/09 07:58:06;;;;;;;;;3.75;3.00;;;;;19.77;64.41;101401.78;5070046;27;45504;-73
2021/08/09 08:00:32;;;;;;;;;4.00;3.00;;;;;19.85;64.50;101404.31;5073659;27;45356;-69
2021/08/09 08:02:57;;;;;;;;;5.50;4.00;;;;;19.82;64.56;101403.88;5069369;27;45527;-72
2021/08/09 08:05:22;;;;;;;;;6.25;2.75;;;;;19.90;63.81;101409.91;5068434;27;45460;-75
2021/08/09 08:07:48;;;;;;;;;5.25;3.50;;;;;19.89;63.46;101402.09;5072438;27;46004;-74
2021/08/09 08:10:13;;;;;;;;;4.00;3.00;;;;;19.90;64.74;101411.78;5071836;27;45366;-69
2021/08/09 08:12:39;;;;;;;;;4.25;2.75;;;;;19.91;63.65;101414.28;5078387;27;46199;-73
2021/08/09 08:15:06;;;;;;;;;2.75;2.75;;;;;19.74;64.29;101419.09;5081236;27;45581;-70
2021/08/09 08:17:32;;;;;;;;;5.00;2.50;;;;;19.51;64.14;101419.28;5074887;27;45639;-75
2021/08/09 08:19:58;;;;;;;;;3.75;2.50;;;;;19.40;64.34;101419.78;5071618;27;45534;-73
2021/08/09 08:22:23;;;;;;;;;5.75;2.50;;;;;19.35;64.69;101422.19;5075038;27;45555;-69
2021/08/09 08:24:48;;;;;;;;;3.00;3.00;;;;;19.25;64.62;101425.19;5074623;27;45483;-71
2021/08/09 08:27:14;;;;;;;;;4.25;2.50;;;;;19.08;65.39;101416.53;5049855;28;45688;-74
2021/08/09 08:29:39;;;;;;;;;6.75;2.25;;;;;18.95;65.63;101424.44;5080486;27;45555;-75
2021/08/09 08:32:05;;;;;;;;;4.00;2.75;;;;;18.82;65.35;101421.59;5074063;27;46604;-75
2021/08/09 08:34:30;;;;;;;;;5.50;3.00;;;;;18.74;66.03;101421.66;5075361;27;45474;-71
2021/08/09 08:36:56;;;;;;;;;4.50;3.50;;;;;18.73;66.09;101422.69;5072727;27;45805;-74
2021/08/09 08:39:21;;;;;;;;;3.25;3.25;;;;;18.69;66.07;101423.06;5069377;27;45542;-75
2021/08/09 08:41:46;;;;;;;;;3.75;2.25;;;;;18.69;66.84;101419.53;5078842;27;54277;-75
2021/08/09 08:44:19;;;;;;;;;5.00;3.50;;;;;18.75;67.23;101417.97;5068929;27;45554;-75
2021/08/09 08:46:46;;;;;;;;;4.25;4.25;;;;;18.94;67.44;101422.78;5083203;27;45491;-72
2021/08/09 08:49:17;;;;;;;;;3.00;3.00;;;;;19.28;66.56;101421.28;5069431;27;45534;-74
2021/08/09 08:51:44;;;;;;;;;4.75;4.50;;;;;20.07;65.76;101428.44;5066389;27;46623;-72
2021/08/09 08:54:12;;;;;;;;;4.00;4.00;;;;;20.66;63.22;101424.47;5080950;27;45484;-69
2021/08/09 08:56:38;;;;;;;;;4.25;4.00;;;;;21.50;62.35;101429.53;5052400;27;45594;-75
2021/08/09 08:59:06;;;;;;;;;4.50;3.00;;;;;22.23;61.33;101431.41;5069321;27;45619;-72
2021/08/09 09:01:46;;;;;;;;;3.75;2.75;;;;;24.06;58.54;101417.41;5076277;27;45564;-75
2021/08/09 09:04:31;;;;;;;;;2.00;2.00;;;;;26.55;53.73;101428.84;5066965;27;45529;-71
2021/08/09 09:07:05;;;;;;;;;4.50;2.75;;;;;27.06;49.55;101424.44;5068813;28;45637;-70
2021/08/09 09:09:32;;;;;;;;;2.75;2.75;;;;;27.16;49.37;101435.47;5068652;27;45459;-74
2021/08/09 09:12:00;;;;;;;;;2.25;2.25;;;;;27.24;48.02;101443.22;5068666;27;46372;-72
2021/08/09 09:14:32;;;;;;;;;2.00;2.00;;;;;28.27;48.42;101434.06;5068687;27;45503;-72
2021/08/09 09:16:59;;;;;;;;;4.00;2.25;;;;;28.72;45.65;101442.00;5066764;27;45476;-70
2021/08/09 09:19:36;;;;;;;;;2.25;2.25;;;;;29.01;45.10;101452.66;5070296;28;45579;-74
2021/08/09 09:22:04;;;;;;;;;3.00;3.00;;;;;28.45;41.56;101452.81;5066942;28;45538;-71
2021/08/09 09:24:30;;;;;;;;;4.50;3.00;;;;;27.25;45.84;101446.78;5067763;27;45578;-70
2021/08/09 09:27:07;;;;;;;;;2.75;2.75;;;;;26.94;47.22;101462.44;5068945;27;45447;-73
2021/08/09 09:29:37;;;;;;;;;3.00;2.00;;;;;27.18;47.07;101456.94;5062289;27;45488;-75
2021/08/09 09:32:18;;;;;;;;;2.00;2.00;;;;;27.33;45.79;101456.44;5067119;27;46339;-74
2021/08/09 09:34:57;;;;;;;;;2.75;1.50;;;;;27.30;46.91;101459.59;5069582;28;45521;-75
2021/08/09 09:37:30;;;;;;;;;2.75;2.00;;;;;27.65;47.93;101454.81;5066951;28;45534;-70
2021/08/09 09:40:11;;;;;;;;;3.50;2.50;;;;;27.58;46.08;101456.06;5068092;28;45692;-74
2021/08/09 09:42:39;;;;;;;;;2.75;2.00;;;;;28.05;45.87;101448.41;5068707;27;46057;-74
2021/08/09 09:45:24;;;;;;;;;3.00;2.00;;;;;28.73;46.56;101453.69;5067160;28;45576;-72
2021/08/09 09:48:08;;;;;;;;;5.00;3.00;;;;;29.08;43.91;101450.59;5069924;27;45574;-71
2021/08/09 09:50:41;;;;;;;;;2.00;2.00;;;;;29.53;44.09;101454.84;5068163;28;45489;-73
2021/08/09 09:53:17;;;;;;;;;2.50;1.50;;;;;29.21;43.46;101454.81;5063477;27;46893;-75
2021/08/09 09:55:43;;;;;;;;;2.00;1.25;;;;;28.63;40.80;101464.44;5068937;28;45483;-74
2021/08/09 09:58:09;;;;;;;;;2.00;2.00;;;;;28.04;42.99;101460.34;5067812;27;45583;-72
2021/08/09 10:00:35;;;;;;;;;2.00;2.00;;;;;27.94;40.39;101462.06;5067647;27;45611;-72
2021/08/09 10:03:00;;;;;;;;;4.00;2.00;;;;;28.08;42.49;101458.78;5067115;28;45594;-73
2021/08/09 10:05:27;;;;;;;;;2.75;2.25;;;;;28.40;42.29;101460.84;5071580;27;45565;-72
2021/08/09 10:07:54;;;;;;;;;4.25;3.00;;;;;28.61;41.44;101455.72;5073323;27;45507;-72
2021/08/09 10:10:24;;;;;;;;;4.00;2.50;;;;;28.62;43.75;101469.06;5068757;27;45764;-72
2021/08/09 10:12:51;;;;;;;;;5.75;2.75;;;;;28.99;44.08;101459.44;5067940;27;45542;-71
2021/08/09 10:15:21;;;;;;;;;1.75;0.75;;;;;29.14;41.02;101459.63;5067112;27;45430;-70
2021/08/09 10:17:48;;;;;;;;;2.50;1.75;;;;;28.78;42.39;101461.91;5073007;27;45618;-71
2021/08/09 10:20:16;;;;;;;;;3.75;1.75;;;;;28.49;42.97;101461.28;5068636;27;45463;-73
2021/08/09 10:22:55;;;;;;;;;2.00;2.00;;;;;28.07;43.18;101464.47;5069052;28;45495;-75
2021/08/09 10:25:43;;;;;;;;;4.75;2.50;;;;;27.56;44.15;101464.44;5069752;27;45569;-70
2021/08/09 10:28:09;;;;;;;;;2.75;2.75;;;;;27.09;44.04;101463.81;5066519;27;45523;-73
2021/08/09 10:30:36;;;;;;;;;3.75;2.75;;;;;27.11;45.79;101467.09;5076684;27;45403;-72
2021/08/09 10:33:05;;;;;;;;;2.25;2.00;;;;;27.91;46.14;101462.59;5067591;27;46303;-72
2021/08/09 10:35:39;;;;;;;;;2.25;2.00;;;;;28.63;44.48;101459.00;5070630;27;45373;-72
2021/08/09 10:38:23;;;;;;;;;3.00;3.00;;;;;29.22;42.23;101453.72;5080879;27;45424;-73
2021/08/09 10:41:09;;;;;;;;;4.00;2.00;;;;;29.20;41.63;101461.31;5083651;27;45434;-73
2021/08/09 10:43:40;;;;;;;;;2.25;2.25;;;;;29.21;42.99;101457.53;5066391;27;47461;-70
2021/08/09 10:46:41;;;;;;;;;3.00;2.00;;;;;29.21;42.71;101459.44;5064203;27;45584;-72
2021/08/09 10:49:09;;;;;;;;;2.00;2.00;;;;;29.29;41.86;101467.94;5075962;27;45585;-75
2021/08/09 10:51:52;;;;;;;;;3.75;1.25;;;;;29.68;41.85;101459.63;5075230;27;45529;-72
2021/08/09 10:54:25;;;;;;;;;2.25;0.75;;;;;29.82;36.08;101467.34;5063974;27;45529;-70
2021/08/09 10:56:50;;;;;;;;;1.25;1.25;;;;;29.26;38.98;101459.50;5078588;27;45610;-75
2021/08/09 10:59:41;;;;;;;;;4.25;2.00;;;;;28.86;41.16;101450.59;5071029;27;45520;-73
2021/08/09 11:02:21;;;;;;;;;1.25;1.25;;;;;28.42;41.72;101457.91;5072491;27;45489;-70
2021/08/09 11:05:15;;;;;;;;;2.75;2.00;;;;;27.92;40.17;101465.06;5072494;27;45789;-70
2021/08/09 11:07:41;;;;;;;;;2.00;1.75;;;;;28.07;43.51;101459.84;5079341;27;45801;-70
2021/08/09 11:10:07;;;;;;;;;1.50;0.50;;;;;28.36;42.85;101457.00;5071112;27;45851;-72
2021/08/09 11:12:33;;;;;;;;;1.75;1.00;;;;;28.43;39.75;101462.25;5076895;27;45564;-71
2021/08/09 11:15:06;;;;;;;;;2.00;1.75;;;;;28.24;42.86;101456.28;5079374;27;45506;-70
2021/08/09 11:17:38;;;;;;;;;3.25;2.75;;;;;28.07;41.33;101457.13;5077312;27;45586;-74
2021/08/09 11:20:22;;;;;;;;;3.00;1.00;;;;;27.58;42.10;101447.91;5070593;27;45378;-73
2021/08/09 11:23:10;;;;;;;;;1.00;1.00;;;;;27.18;42.37;101449.66;5061504;27;45604;-74
2021/08/09 11:25:41;;;;;;;;;2.00;2.00;;;;;26.96;43.56;101454.91;5078633;27;46594;-70
2021/08/09 11:28:26;;;;;;;;;1.00;1.00;;;;;26.70;41.99;101445.41;5069834;27;45504;-71